createdAt,value
2018-04-18T00:00:35.089Z,99961.00
2018-04-18T00:03:02.531Z,99965.31
2018-04-18T00:05:29.947Z,99969.59
2018-04-18T00:07:57.333Z,99963.42
2018-04-18T00:10:25.468Z,99963.92
2018-04-18T00:12:52.872Z,99963.01
2018-04-18T00:15:20.273Z,99963.63
2018-04-18T00:17:47.924Z,99962.61
2018-04-18T00:20:15.320Z,99967.30
2018-04-18T00:22:42.715Z,99967.20
2018-04-18T00:25:10.094Z,99959.97
2018-04-18T00:27:37.675Z,99968.33
2018-04-18T00:30:05.047Z,99970.57
2018-04-18T00:32:32.436Z,99972.75
2018-04-18T00:34:59.820Z,99975.34
2018-04-18T00:37:27.214Z,99973.13
2018-04-18T00:39:54.588Z,99977.33
2018-04-18T00:42:21.980Z,99976.77
2018-04-18T00:44:49.367Z,99983.31
2018-04-18T00:47:16.762Z,99983.88
2018-04-18T00:49:44.149Z,99977.72
2018-04-18T00:52:11.836Z,99983.88
2018-04-18T00:54:39.284Z,99980.13
2018-04-18T00:57:06.689Z,99975.84
2018-04-18T00:59:34.089Z,99984.66
2018-04-18T01:02:01.486Z,99984.08
2018-04-18T01:04:28.880Z,99983.63
2018-04-18T01:06:56.276Z,99987.80
2018-04-18T01:09:23.663Z,99992.40
2018-04-18T01:11:51.055Z,99987.52
2018-04-18T01:14:18.444Z,99987.86
2018-04-18T01:16:45.832Z,99991.72
2018-04-18T01:19:14.017Z,99995.23
2018-04-18T01:21:41.448Z,99987.83
2018-04-18T01:24:08.836Z,99997.98
2018-04-18T01:26:36.224Z,99992.86
2018-04-18T01:29:03.630Z,100001.58
2018-04-18T01:31:31.016Z,100001.55
2018-04-18T01:33:58.575Z,100000.09
2018-04-18T01:36:25.972Z,100002.27
2018-04-18T01:38:53.360Z,100009.91
2018-04-18T01:41:20.749Z,100004.78
2018-04-18T01:43:48.171Z,100010.53
2018-04-18T01:46:15.714Z,100015.41
2018-04-18T01:48:43.097Z,100014.91
2018-04-18T01:51:10.477Z,100018.37
2018-04-18T01:53:37.885Z,100020.63
2018-04-18T01:56:05.271Z,100021.07
2018-04-18T01:58:32.677Z,100021.53
2018-04-18T02:01:00.071Z,100016.55
2018-04-18T02:03:27.478Z,100020.11
2018-04-18T02:05:54.883Z,100020.88
2018-04-18T02:08:22.260Z,100026.56
2018-04-18T02:10:49.672Z,100022.60
2018-04-18T02:13:17.055Z,100022.02
2018-04-18T02:15:44.459Z,100028.55
2018-04-18T02:18:11.858Z,100016.46
2018-04-18T02:20:39.243Z,100024.53
2018-04-18T02:23:06.641Z,100020.16
2018-04-18T02:25:34.046Z,100030.58
2018-04-18T02:28:01.416Z,100029.45
2018-04-18T02:30:28.821Z,100029.23
2018-04-18T02:32:56.208Z,100025.67
2018-04-18T02:35:23.600Z,100030.16
2018-04-18T02:37:50.998Z,100035.52
2018-04-18T02:40:18.393Z,100032.91
2018-04-18T02:42:45.803Z,100036.58
2018-04-18T02:45:13.185Z,100037.43
2018-04-18T02:47:40.577Z,100037.37
2018-04-18T02:50:07.970Z,100038.98
2018-04-18T02:52:35.361Z,100041.52
2018-04-18T02:55:02.764Z,100039.88
2018-04-18T02:57:30.186Z,100037.37
2018-04-18T02:59:57.587Z,100037.77
2018-04-18T03:02:24.982Z,100041.06
2018-04-18T03:04:52.376Z,100044.94
2018-04-18T03:07:19.762Z,100045.27
2018-04-18T03:09:47.153Z,100046.79
2018-04-18T03:12:14.556Z,100044.94
2018-04-18T03:14:41.959Z,100052.28
2018-04-18T03:17:09.360Z,100052.42
2018-04-18T03:19:36.767Z,100046.95
2018-04-18T03:22:04.147Z,100050.52
2018-04-18T03:24:31.537Z,100051.63
2018-04-18T03:26:58.917Z,100045.98
2018-04-18T03:29:26.313Z,100050.86
2018-04-18T03:31:53.696Z,100053.64
2018-04-18T03:34:21.090Z,100057.00
2018-04-18T03:36:48.592Z,100050.11
2018-04-18T03:39:15.993Z,100044.35
2018-04-18T03:41:43.381Z,100052.02
2018-04-18T03:44:10.838Z,100054.50
2018-04-18T03:46:38.252Z,100050.16
2018-04-18T03:49:05.637Z,100054.66
2018-04-18T03:51:33.032Z,100056.00
2018-04-18T03:54:00.419Z,100054.23
2018-04-18T03:56:27.829Z,100057.55
2018-04-18T03:58:55.223Z,100057.87
2018-04-18T04:01:22.632Z,100061.70
2018-04-18T04:03:50.012Z,100059.59
2018-04-18T04:06:17.452Z,100062.16
2018-04-18T04:08:44.829Z,100061.64
2018-04-18T04:11:12.535Z,100071.59
2018-04-18T04:13:39.927Z,100065.58
2018-04-18T04:16:19.160Z,100066.12
2018-04-18T04:18:58.171Z,100071.50
2018-04-18T04:21:37.340Z,100070.82
2018-04-18T04:24:17.099Z,100070.22
2018-04-18T04:26:44.504Z,100073.61
2018-04-18T04:29:11.925Z,100065.86
2018-04-18T04:31:39.417Z,100070.70
2018-04-18T04:34:06.803Z,100077.14
2018-04-18T04:36:34.210Z,100074.05
2018-04-18T04:39:01.609Z,100075.85
2018-04-18T04:41:29.016Z,100080.76
2018-04-18T04:43:56.404Z,100075.98
2018-04-18T04:46:23.848Z,100077.96
2018-04-18T04:48:51.241Z,100086.66
2018-04-18T04:51:18.664Z,100083.07
2018-04-18T04:53:46.047Z,100089.42
2018-04-18T04:56:13.453Z,100086.85
2018-04-18T04:58:40.844Z,100090.58
2018-04-18T05:01:08.240Z,100094.73
2018-04-18T05:03:35.628Z,100095.84
2018-04-18T05:06:03.037Z,100102.20
2018-04-18T05:08:30.421Z,100100.73
2018-04-18T05:10:57.895Z,100102.02
2018-04-18T05:13:25.398Z,100101.73
2018-04-18T05:15:52.781Z,100106.38
2018-04-18T05:18:20.212Z,100108.00
2018-04-18T05:20:47.652Z,100110.14
2018-04-18T05:23:15.087Z,100108.73
2018-04-18T05:25:42.483Z,100111.16
2018-04-18T05:28:09.879Z,100120.47
2018-04-18T05:30:38.334Z,100115.40
2018-04-18T05:33:05.722Z,100119.16
2018-04-18T05:35:33.192Z,100120.39
2018-04-18T05:38:00.677Z,100123.77
2018-04-18T05:40:28.057Z,100127.23
2018-04-18T05:42:55.460Z,100129.19
2018-04-18T05:45:22.864Z,100122.41
2018-04-18T05:47:50.322Z,100128.55
2018-04-18T05:50:17.788Z,100133.33
2018-04-18T05:52:45.244Z,100126.20
2018-04-18T05:55:12.695Z,100121.46
2018-04-18T05:57:40.223Z,100126.87
2018-04-18T06:00:07.621Z,100123.11
2018-04-18T06:02:35.065Z,100123.93
2018-04-18T06:05:02.531Z,100123.25
2018-04-18T06:07:29.992Z,100130.07
2018-04-18T06:09:57.445Z,100130.68
2018-04-18T06:12:24.903Z,100124.21
2018-04-18T06:14:52.364Z,100126.64
2018-04-18T06:17:19.821Z,100121.89
2018-04-18T06:19:47.283Z,100131.61
2018-04-18T06:22:14.863Z,100138.79
2018-04-18T06:24:42.286Z,100141.83
2018-04-18T06:27:09.668Z,100140.51
2018-04-18T06:29:37.090Z,100137.22
2018-04-18T06:32:04.580Z,100138.78
2018-04-18T06:34:32.023Z,100132.44
2018-04-18T06:36:59.472Z,100135.11
2018-04-18T06:39:26.928Z,100133.67
2018-04-18T06:41:54.401Z,100140.48
2018-04-18T06:44:21.884Z,100137.33
2018-04-18T06:46:49.416Z,100143.27
2018-04-18T06:49:16.821Z,100143.88
2018-04-18T06:51:44.240Z,100147.24
2018-04-18T06:54:12.607Z,100148.73
2018-04-18T06:56:40.040Z,100143.55
2018-04-18T06:59:07.516Z,100139.16
2018-04-18T07:01:34.982Z,100140.48
2018-04-18T07:04:02.432Z,100140.05
2018-04-18T07:06:29.875Z,100149.43
2018-04-18T07:08:57.280Z,100144.77
2018-04-18T07:11:24.714Z,100144.39
2018-04-18T07:13:52.113Z,100136.00
2018-04-18T07:16:19.533Z,100131.85
2018-04-18T07:18:46.975Z,100134.20
2018-04-18T07:21:14.375Z,100133.96
2018-04-18T07:23:41.808Z,100139.23
2018-04-18T07:26:09.253Z,100138.64
2018-04-18T07:28:36.718Z,100136.16
2018-04-18T07:31:04.175Z,100137.30
2018-04-18T07:33:31.624Z,100140.97
2018-04-18T07:35:59.421Z,100138.89
2018-04-18T07:38:26.856Z,100141.53
2018-04-18T07:40:54.317Z,100143.84
2018-04-18T07:43:21.770Z,100134.76
2018-04-18T07:45:49.251Z,100134.34
2018-04-18T07:48:16.690Z,100136.97
2018-04-18T07:50:44.447Z,100143.13
2018-04-18T07:53:12.318Z,100140.94
2018-04-18T07:55:39.709Z,100143.61
2018-04-18T07:58:07.132Z,100141.28
2018-04-18T08:00:34.768Z,100141.95
2018-04-18T08:03:02.173Z,100136.25
2018-04-18T08:05:29.595Z,100144.03
2018-04-18T08:07:56.984Z,100142.66
2018-04-18T08:10:24.421Z,100148.24
2018-04-18T08:12:51.864Z,100150.34
2018-04-18T08:15:19.394Z,100149.44
2018-04-18T08:17:46.792Z,100149.03
2018-04-18T08:20:15.164Z,100142.64
2018-04-18T08:22:42.626Z,100150.77
2018-04-18T08:25:10.029Z,100153.94
2018-04-18T08:27:37.543Z,100155.44
2018-04-18T08:30:05.002Z,100146.51
2018-04-18T08:32:32.460Z,100153.35
2018-04-18T08:34:59.925Z,100146.48
2018-04-18T08:37:27.382Z,100156.97
2018-04-18T08:39:54.841Z,100150.88
2018-04-18T08:42:22.237Z,100150.80
2018-04-18T08:44:49.737Z,100152.48
2018-04-18T08:47:17.184Z,100156.88
2018-04-18T08:49:44.778Z,100151.45
2018-04-18T08:52:12.176Z,100157.52
2018-04-18T08:54:39.593Z,100156.47
2018-04-18T08:57:07.060Z,100151.27
2018-04-18T08:59:34.499Z,100158.00
2018-04-18T09:02:01.967Z,100143.99
2018-04-18T09:04:29.428Z,100149.34
2018-04-18T09:06:56.876Z,100148.87
2018-04-18T09:09:24.325Z,100147.41
2018-04-18T09:11:51.792Z,100145.03
2018-04-18T09:14:19.353Z,100150.20
2018-04-18T09:16:46.775Z,100157.64
2018-04-18T09:19:14.181Z,100148.23
2018-04-18T09:21:41.723Z,100150.50
2018-04-18T09:24:09.184Z,100152.85
2018-04-18T09:26:36.639Z,100149.39
2018-04-18T09:29:04.093Z,100150.38
2018-04-18T09:31:31.550Z,100148.83
2018-04-18T09:33:59.009Z,100144.52
2018-04-18T09:36:26.468Z,100142.17
2018-04-18T09:38:53.871Z,100141.09
2018-04-18T09:41:21.278Z,100142.53
2018-04-18T09:43:48.841Z,100141.19
2018-04-18T09:46:16.242Z,100140.81
2018-04-18T09:48:43.663Z,100142.34
2018-04-18T09:51:11.123Z,100144.23
2018-04-18T09:53:38.666Z,100147.34
2018-04-18T09:56:06.124Z,100141.49
2018-04-18T09:58:33.631Z,100140.29
2018-04-18T10:01:01.040Z,100144.75
2018-04-18T10:03:28.504Z,100133.02
2018-04-18T10:05:55.918Z,100141.27
2018-04-18T10:08:23.614Z,100139.58
2018-04-18T10:10:51.069Z,100136.60
2018-04-18T10:13:18.548Z,100143.72
2018-04-18T10:15:46.000Z,100135.66
2018-04-18T10:18:13.485Z,100137.20
2018-04-18T10:20:40.936Z,100142.83
2018-04-18T10:23:08.366Z,100139.17
2018-04-18T10:25:36.233Z,100141.09
2018-04-18T10:28:03.699Z,100139.17
2018-04-18T10:30:31.072Z,100133.54
2018-04-18T10:32:58.511Z,100139.09
2018-04-18T10:35:26.887Z,100126.50
2018-04-18T10:37:54.368Z,100131.30
2018-04-18T10:40:21.812Z,100124.27
2018-04-18T10:42:49.272Z,100122.28
2018-04-18T10:45:16.791Z,100115.97
2018-04-18T10:47:44.180Z,100118.23
2018-04-18T10:50:11.643Z,100110.22
2018-04-18T10:52:39.103Z,100118.48
2018-04-18T10:55:06.524Z,100119.25
2018-04-18T10:57:33.917Z,100114.94
2018-04-18T11:00:01.321Z,100112.92
2018-04-18T11:02:28.717Z,100108.30
2018-04-18T11:04:56.124Z,100103.33
2018-04-18T11:07:23.543Z,100098.27
2018-04-18T11:09:50.948Z,100098.75
2018-04-18T11:12:18.333Z,100104.74
2018-04-18T11:14:45.732Z,100109.09
2018-04-18T11:17:13.126Z,100090.23
2018-04-18T11:19:40.524Z,100096.19
2018-04-18T11:22:07.913Z,100091.45
2018-04-18T11:24:35.307Z,100084.48
2018-04-18T11:27:02.696Z,100081.98
2018-04-18T11:29:30.111Z,100084.67
2018-04-18T11:31:57.480Z,100075.52
2018-04-18T11:34:24.883Z,100078.05
2018-04-18T11:36:52.272Z,100074.02
2018-04-18T11:39:19.716Z,100067.20
2018-04-18T11:41:47.112Z,100069.91
2018-04-18T11:44:14.544Z,100066.63
2018-04-18T11:46:41.924Z,100057.48
2018-04-18T11:49:09.323Z,100065.17
2018-04-18T11:51:36.732Z,100069.17
2018-04-18T11:54:04.127Z,100059.56
2018-04-18T11:56:31.529Z,100063.31
2018-04-18T11:58:58.932Z,100065.15
2018-04-18T12:01:26.338Z,100064.29
2018-04-18T12:03:53.740Z,100069.09
2018-04-18T12:06:21.843Z,100068.56
2018-04-18T12:08:49.254Z,100061.17
2018-04-18T12:11:16.651Z,100057.34
2018-04-18T12:13:44.044Z,100052.91
2018-04-18T12:16:11.459Z,100058.05
2018-04-18T12:18:38.849Z,100054.86
2018-04-18T12:21:06.264Z,100063.42
2018-04-18T12:23:33.660Z,100053.40
2018-04-18T12:26:01.072Z,100045.81
2018-04-18T12:28:28.473Z,100048.90
2018-04-18T12:30:55.883Z,100049.97
2018-04-18T12:33:23.276Z,100041.03
2018-04-18T12:35:51.483Z,100047.95
2018-04-18T12:38:18.887Z,100048.52
2018-04-18T12:40:46.285Z,100056.77
2018-04-18T12:43:14.397Z,100048.48
2018-04-18T12:45:41.807Z,100045.19
2018-04-18T12:48:09.216Z,100044.47
2018-04-18T12:50:36.626Z,100041.56
2018-04-18T12:53:04.028Z,100039.25
2018-04-18T12:55:31.436Z,100033.54
2018-04-18T12:57:58.841Z,100036.77
2018-04-18T13:00:26.227Z,100026.41
2018-04-18T13:02:53.684Z,100024.65
2018-04-18T13:05:21.064Z,100026.81
2018-04-18T13:07:48.485Z,100020.88
2018-04-18T13:10:15.903Z,100018.75
2018-04-18T13:12:43.307Z,100021.20
2018-04-18T13:15:10.747Z,100021.04
2018-04-18T13:17:38.158Z,100021.94
2018-04-18T13:20:05.559Z,100016.52
2018-04-18T13:22:32.969Z,100011.83
2018-04-18T13:25:00.366Z,100020.34
2018-04-18T13:27:27.773Z,100012.89
2018-04-18T13:29:55.178Z,100008.91
2018-04-18T13:32:22.589Z,100008.85
2018-04-18T13:34:50.593Z,100009.40
2018-04-18T13:37:18.033Z,100016.37
2018-04-18T13:39:45.424Z,100007.23
2018-04-18T13:42:13.709Z,100008.59
2018-04-18T13:44:41.084Z,100011.36
2018-04-18T13:47:08.496Z,99999.94
2018-04-18T13:49:35.884Z,99999.84
2018-04-18T13:52:03.283Z,99994.73
2018-04-18T13:54:30.680Z,99992.00
2018-04-18T13:56:58.105Z,99993.58
2018-04-18T13:59:25.596Z,99991.91
2018-04-18T14:01:52.981Z,99991.52
2018-04-18T14:04:20.515Z,99987.27
2018-04-18T14:06:47.896Z,99992.54
2018-04-18T14:09:15.338Z,99983.16
2018-04-18T14:11:42.736Z,99980.14
2018-04-18T14:14:10.124Z,99980.79
2018-04-18T14:16:37.516Z,99983.20
2018-04-18T14:19:04.912Z,99983.83
2018-04-18T14:21:32.313Z,99973.71
2018-04-18T14:23:59.696Z,99970.33
2018-04-18T14:26:27.388Z,99969.65
2018-04-18T14:28:54.872Z,99977.28
2018-04-18T14:31:22.260Z,99975.12
2018-04-18T14:33:49.657Z,99971.49
2018-04-18T14:36:17.067Z,99976.93
2018-04-18T14:38:44.509Z,99969.51
2018-04-18T14:41:11.955Z,99971.30
2018-04-18T14:43:39.408Z,99969.17
2018-04-18T14:46:06.785Z,99964.09
2018-04-18T14:48:34.199Z,99972.39
2018-04-18T14:51:01.607Z,99963.30
2018-04-18T14:53:28.984Z,99961.08
2018-04-18T14:55:56.403Z,99967.92
2018-04-18T14:58:23.853Z,99964.94
2018-04-18T15:00:51.325Z,99963.46
2018-04-18T15:03:18.745Z,99963.94
2018-04-18T15:05:46.140Z,99960.34
2018-04-18T15:08:13.522Z,99957.67
2018-04-18T15:10:40.990Z,99956.58
2018-04-18T15:13:08.326Z,99958.61
2018-04-18T15:15:35.775Z,99950.84
2018-04-18T15:18:03.220Z,99957.39
2018-04-18T15:20:30.665Z,99952.77
2018-04-18T15:22:58.602Z,99951.67
2018-04-18T15:25:26.013Z,99945.63
2018-04-18T15:27:53.450Z,99941.77
2018-04-18T15:30:20.818Z,99943.83
2018-04-18T15:32:48.499Z,99938.30
2018-04-18T15:35:15.925Z,99938.55
2018-04-18T15:37:43.308Z,99940.87
2018-04-18T15:40:11.066Z,99930.94
2018-04-18T15:42:38.444Z,99930.02
2018-04-18T15:45:05.879Z,99931.47
2018-04-18T15:47:33.320Z,99934.08
2018-04-18T15:50:00.795Z,99930.46
2018-04-18T15:52:28.220Z,99928.86
2018-04-18T15:54:55.703Z,99929.37
2018-04-18T15:57:23.170Z,99924.95
2018-04-18T15:59:50.608Z,99926.14
2018-04-18T16:02:18.072Z,99929.45
2018-04-18T16:04:45.524Z,99921.58
2018-04-18T16:07:12.988Z,99927.09
2018-04-18T16:09:40.443Z,99922.95
2018-04-18T16:12:07.930Z,99919.79
2018-04-18T16:14:35.374Z,99920.86
2018-04-18T16:17:02.828Z,99924.09
2018-04-18T16:19:30.720Z,99918.08
2018-04-18T16:21:58.156Z,99922.06
2018-04-18T16:24:25.533Z,99922.48
2018-04-18T16:26:52.970Z,99922.36
2018-04-18T16:29:32.227Z,99924.14
2018-04-18T16:31:59.659Z,99922.08
2018-04-18T16:34:27.026Z,99921.02
2018-04-18T16:36:54.494Z,99918.98
2018-04-18T16:39:22.037Z,99922.33
2018-04-18T16:41:49.496Z,99921.12
2018-04-18T16:44:16.949Z,99915.63
2018-04-18T16:46:44.328Z,99923.78
2018-04-18T16:49:11.766Z,99920.86
2018-04-18T16:51:39.172Z,99917.32
2018-04-18T16:54:06.544Z,99914.81
2018-04-18T16:56:33.943Z,99913.47
2018-04-18T16:59:02.329Z,99917.68
2018-04-18T17:01:29.806Z,99908.35
2018-04-18T17:03:57.532Z,99914.38
2018-04-18T17:06:25.820Z,99906.38
2018-04-18T17:08:53.968Z,99913.25
2018-04-18T17:11:21.443Z,99911.07
2018-04-18T17:13:48.902Z,99906.43
2018-04-18T17:16:16.270Z,99908.38
2018-04-18T17:18:43.724Z,99907.61
2018-04-18T17:21:11.165Z,99908.31
2018-04-18T17:23:38.640Z,99910.44
2018-04-18T17:26:06.089Z,99907.28
2018-04-18T17:28:33.641Z,99911.15
2018-04-18T17:31:01.011Z,99912.53
2018-04-18T17:33:28.409Z,99914.84
2018-04-18T17:35:55.799Z,99909.20
2018-04-18T17:38:23.199Z,99912.30
2018-04-18T17:40:50.585Z,99910.17
2018-04-18T17:43:17.973Z,99907.59
2018-04-18T17:45:45.357Z,99907.37
2018-04-18T17:48:12.761Z,99906.78
2018-04-18T17:50:40.144Z,99907.24
2018-04-18T17:53:07.688Z,99901.05
2018-04-18T17:55:35.078Z,99899.38
2018-04-18T17:58:02.471Z,99903.09
2018-04-18T18:00:29.856Z,99904.06
2018-04-18T18:02:57.314Z,99899.80
2018-04-18T18:05:24.766Z,99897.48
2018-04-18T18:07:52.159Z,99898.75
2018-04-18T18:10:19.534Z,99904.86
2018-04-18T18:12:46.924Z,99901.69
2018-04-18T18:15:14.419Z,99907.58
2018-04-18T18:17:41.822Z,99901.09
2018-04-18T18:20:09.229Z,99907.81
2018-04-18T18:22:36.655Z,99911.57
2018-04-18T18:25:04.188Z,99912.70
2018-04-18T18:27:31.595Z,99914.66
2018-04-18T18:29:59.082Z,99917.98
2018-04-18T18:32:26.519Z,99915.07
2018-04-18T18:34:53.922Z,99925.34
2018-04-18T18:37:21.316Z,99918.44
2018-04-18T18:39:48.731Z,99924.74
2018-04-18T18:42:16.096Z,99929.98
2018-04-18T18:44:43.490Z,99927.86
2018-04-18T18:47:10.892Z,99930.28
2018-04-18T18:49:38.271Z,99933.80
2018-04-18T18:52:06.072Z,99934.84
2018-04-18T18:54:33.453Z,99936.42
2018-04-18T18:57:00.906Z,99935.93
2018-04-18T18:59:28.270Z,99945.51
2018-04-18T19:01:55.654Z,99944.30
2018-04-18T19:04:23.177Z,99949.32
2018-04-18T19:06:50.555Z,99947.67
2018-04-18T19:09:17.948Z,99948.48
2018-04-18T19:11:45.335Z,99950.67
2018-04-18T19:14:12.730Z,99950.90
2018-04-18T19:16:40.124Z,99950.18
2018-04-18T19:19:07.523Z,99954.38
2018-04-18T19:21:35.268Z,99952.98
2018-04-18T19:24:02.763Z,99951.88
2018-04-18T19:26:30.147Z,99948.18
2018-04-18T19:28:57.662Z,99943.72
2018-04-18T19:31:25.039Z,99949.17
2018-04-18T19:33:52.884Z,99949.20
2018-04-18T19:36:21.274Z,99948.73
2018-04-18T19:38:48.676Z,99947.73
2018-04-18T19:41:16.115Z,99950.19
2018-04-18T19:43:43.499Z,99957.48
2018-04-18T19:46:10.900Z,99952.91
2018-04-18T19:48:38.273Z,99952.81
2018-04-18T19:51:05.714Z,99955.52
2018-04-18T19:53:33.364Z,99959.05
2018-04-18T19:56:00.747Z,99960.44
2018-04-18T19:58:28.156Z,99958.67
2018-04-18T20:00:55.551Z,99961.64
2018-04-18T20:03:22.940Z,99967.02
2018-04-18T20:05:50.339Z,99962.69
2018-04-18T20:08:17.714Z,99965.30
2018-04-18T20:10:45.130Z,99963.61
2018-04-18T20:13:12.517Z,99955.30
2018-04-18T20:15:39.910Z,99959.30
2018-04-18T20:18:07.344Z,99961.94
2018-04-18T20:20:34.822Z,99951.86
2018-04-18T20:23:02.180Z,99957.25
2018-04-18T20:25:29.580Z,99951.95
2018-04-18T20:27:56.962Z,99950.55
2018-04-18T20:30:24.365Z,99952.31
2018-04-18T20:32:51.771Z,99946.92
2018-04-18T20:35:19.435Z,99946.77
2018-04-18T20:37:46.815Z,99949.70
2018-04-18T20:40:14.220Z,99953.22
2018-04-18T20:42:57.541Z,99949.16
2018-04-18T20:45:24.930Z,99953.73
2018-04-18T20:47:52.316Z,99953.48
2018-04-18T20:50:19.715Z,99947.48
2018-04-18T20:52:47.100Z,99952.88
2018-04-18T20:55:14.512Z,99954.35
2018-04-18T20:57:42.187Z,99947.41
2018-04-18T21:00:09.701Z,99943.91
2018-04-18T21:02:37.115Z,99944.35
2018-04-18T21:05:05.986Z,99945.66
2018-04-18T21:07:33.379Z,99944.73
2018-04-18T21:10:00.757Z,99942.56
2018-04-18T21:12:28.150Z,99949.72
2018-04-18T21:14:55.614Z,99950.81
2018-04-18T21:17:22.992Z,99947.47
2018-04-18T21:19:50.545Z,99949.56
2018-04-18T21:22:17.951Z,99946.37
2018-04-18T21:24:45.455Z,99952.92
2018-04-18T21:27:12.841Z,99945.20
2018-04-18T21:29:40.227Z,99946.78
2018-04-18T21:32:07.619Z,99950.48
2018-04-18T21:34:35.152Z,99950.40
2018-04-18T21:37:02.551Z,99950.80
2018-04-18T21:39:29.933Z,99951.77
2018-04-18T21:41:57.664Z,99952.23
2018-04-18T21:44:25.127Z,99944.73
2018-04-18T21:46:52.536Z,99949.22
2018-04-18T21:49:19.923Z,99944.84
2018-04-18T21:51:47.327Z,99945.52
2018-04-18T21:54:14.887Z,99952.38
2018-04-18T21:56:42.290Z,99946.13
2018-04-18T22:02:42.460Z,99949.67
2018-04-18T22:05:09.847Z,99952.31
2018-04-18T22:07:37.404Z,99951.60
2018-04-18T22:10:04.805Z,99953.58
2018-04-18T22:12:32.210Z,99953.80
2018-04-18T22:14:59.606Z,99957.66
2018-04-18T22:17:27.127Z,99952.03
2018-04-18T22:19:54.501Z,99954.94
2018-04-18T22:22:21.904Z,99950.14
2018-04-18T22:24:49.287Z,99957.30
2018-04-18T22:27:16.788Z,99956.09
2018-04-18T22:29:44.177Z,99953.41
2018-04-18T22:32:11.573Z,99954.80
2018-04-18T22:34:39.067Z,99951.72
2018-04-18T22:37:06.502Z,99956.84
2018-04-18T22:39:33.890Z,99954.95
2018-04-18T22:42:01.272Z,99960.42
2018-04-18T22:44:28.908Z,99961.65
2018-04-18T22:46:56.334Z,99960.80
2018-04-18T22:49:23.696Z,99963.34
2018-04-18T22:51:51.083Z,99964.13
2018-04-18T22:54:18.656Z,99965.63
2018-04-18T22:56:46.666Z,99966.48
2018-04-18T22:59:14.070Z,99958.71
2018-04-18T23:01:41.653Z,99963.87
2018-04-18T23:04:09.044Z,99960.70
2018-04-18T23:06:36.421Z,99958.09
2018-04-18T23:09:03.820Z,99960.28
2018-04-18T23:11:31.270Z,99957.47
2018-04-18T23:13:58.672Z,99960.25
2018-04-18T23:16:26.068Z,99953.50
2018-04-18T23:18:53.472Z,99962.20
2018-04-18T23:21:21.184Z,99961.31
2018-04-18T23:23:48.599Z,99958.36
2018-04-18T23:26:15.996Z,99952.31
2018-04-18T23:28:43.827Z,99953.06
2018-04-18T23:31:11.216Z,99950.03
2018-04-18T23:33:38.616Z,99947.30
2018-04-18T23:36:06.020Z,99949.37
2018-04-18T23:38:33.445Z,99947.09
2018-04-18T23:41:00.828Z,99942.55
2018-04-18T23:43:28.238Z,99945.30
2018-04-18T23:45:55.620Z,99949.10
2018-04-18T23:48:23.068Z,99949.95
2018-04-18T23:50:50.466Z,99949.94
2018-04-18T23:53:18.319Z,99952.12
2018-04-18T23:55:45.745Z,99945.94
2018-04-18T23:58:13.124Z,99943.72
